createdAt,value
2022-09-28T00:01:59.414Z,4.65
2022-09-28T00:04:26.844Z,6.63
2022-09-28T00:06:54.090Z,6.78
2022-09-28T00:09:21.373Z,6.10
2022-09-28T00:11:48.640Z,7.05
2022-09-28T00:14:15.877Z,7.10
2022-09-28T00:16:44.982Z,8.57
2022-09-28T00:19:13.779Z,7.77
2022-09-28T00:21:42.177Z,6.57
2022-09-28T00:24:12.721Z,5.13
2022-09-28T00:26:41.398Z,8.18
2022-09-28T00:29:09.453Z,5.43
2022-09-28T00:31:37.058Z,4.72
2022-09-28T00:34:06.022Z,4.32
2022-09-28T00:36:34.196Z,5.00
2022-09-28T00:39:05.194Z,7.75
2022-09-28T00:41:32.558Z,5.80
2022-09-28T00:44:18.320Z,4.97
2022-09-28T00:46:45.646Z,4.93
2022-09-28T00:49:16.026Z,4.75
2022-09-28T00:51:45.026Z,5.32
2022-09-28T00:54:12.652Z,7.65
2022-09-28T00:56:41.362Z,5.18
2022-09-28T00:59:09.902Z,7.90
2022-09-28T01:01:37.574Z,4.38
2022-09-28T01:04:05.740Z,6.10
2022-09-28T01:06:34.396Z,8.07
2022-09-28T01:09:03.544Z,5.60
2022-09-28T01:11:32.135Z,5.80
2022-09-28T01:14:00.294Z,7.38
2022-09-28T01:16:46.275Z,6.63
2022-09-28T01:19:25.625Z,9.27
2022-09-28T01:21:54.867Z,6.30
2022-09-28T01:24:34.222Z,7.20
2022-09-28T01:27:06.241Z,6.63
2022-09-28T01:29:39.442Z,8.23
2022-09-28T01:32:16.314Z,5.85
2022-09-28T01:35:01.555Z,8.05
2022-09-28T01:37:33.096Z,7.60
2022-09-28T01:40:02.744Z,7.35
2022-09-28T01:42:31.847Z,8.07
2022-09-28T01:45:02.944Z,8.13
2022-09-28T01:47:32.126Z,6.68
2022-09-28T01:50:01.604Z,6.03
2022-09-28T01:52:35.689Z,6.05
2022-09-28T01:55:09.197Z,7.57
2022-09-28T01:58:03.340Z,6.55
2022-09-28T02:00:30.692Z,6.03
2022-09-28T02:03:01.275Z,4.90
2022-09-28T02:05:33.810Z,6.45
2022-09-28T02:08:21.349Z,5.45
2022-09-28T02:10:50.849Z,7.43
2022-09-28T02:13:21.298Z,5.50
2022-09-28T02:15:54.215Z,4.88
2022-09-28T02:18:21.534Z,6.20
2022-09-28T02:20:53.950Z,7.22
2022-09-28T02:23:23.066Z,9.73
2022-09-28T02:26:11.472Z,5.73
2022-09-28T02:28:38.743Z,5.75
2022-09-28T02:31:06.086Z,5.60
2022-09-28T02:33:41.605Z,6.53
2022-09-28T02:36:09.196Z,6.50
2022-09-28T02:38:37.335Z,8.05
2022-09-28T02:41:06.886Z,5.72
2022-09-28T02:43:41.017Z,4.85
2022-09-28T02:46:11.436Z,5.63
2022-09-28T02:48:44.009Z,4.53
2022-09-28T02:51:25.022Z,4.97
2022-09-28T02:53:52.275Z,6.55
2022-09-28T02:56:34.714Z,4.97
2022-09-28T02:59:07.995Z,6.47
2022-09-28T03:01:40.344Z,5.05
2022-09-28T03:04:27.395Z,5.63
2022-09-28T03:06:58.422Z,4.53
2022-09-28T03:09:41.809Z,5.50
2022-09-28T03:12:10.853Z,6.03
2022-09-28T03:14:38.287Z,4.30
2022-09-28T03:17:05.700Z,4.78
2022-09-28T03:19:34.299Z,4.13
2022-09-28T03:22:01.952Z,4.40
2022-09-28T03:24:29.279Z,4.95
2022-09-28T03:26:56.555Z,5.07
2022-09-28T03:29:24.119Z,6.22
2022-09-28T03:31:51.514Z,5.60
2022-09-28T03:34:18.805Z,4.07
2022-09-28T03:36:46.080Z,6.38
2022-09-28T03:39:13.366Z,4.65
2022-09-28T03:41:40.623Z,4.32
2022-09-28T03:44:07.926Z,4.68
2022-09-28T03:46:35.154Z,3.75
2022-09-28T03:49:02.503Z,8.82
2022-09-28T03:51:29.865Z,5.57
2022-09-28T03:53:57.159Z,4.68
2022-09-28T03:56:25.638Z,5.47
2022-09-28T03:58:52.997Z,7.15
2022-09-28T04:01:20.323Z,6.28
2022-09-28T04:03:47.959Z,4.85
2022-09-28T04:06:15.529Z,5.07
2022-09-28T04:08:43.538Z,7.88
2022-09-28T04:11:11.109Z,5.63
2022-09-28T04:13:39.186Z,6.20
2022-09-28T04:16:07.897Z,5.35
2022-09-28T04:18:35.368Z,7.07
2022-09-28T04:21:04.674Z,4.20
2022-09-28T04:23:32.034Z,6.78
2022-09-28T04:25:59.571Z,7.68
2022-09-28T04:28:45.860Z,7.10
2022-09-28T04:31:16.602Z,5.47
2022-09-28T04:33:43.988Z,8.18
2022-09-28T04:36:13.677Z,4.75
2022-09-28T04:38:52.706Z,6.75
2022-09-28T04:43:49.660Z,8.07
2022-09-28T04:46:18.986Z,7.97
2022-09-28T04:48:46.365Z,9.90
2022-09-28T04:51:13.687Z,6.97
2022-09-28T04:53:40.969Z,9.02
2022-09-28T04:56:17.775Z,6.53
2022-09-28T04:58:47.915Z,4.90
2022-09-28T05:01:20.569Z,7.53
2022-09-28T05:03:48.057Z,4.93
2022-09-28T05:06:15.903Z,8.38
2022-09-28T05:08:44.908Z,4.65
2022-09-28T05:11:12.969Z,13.38
2022-09-28T05:13:45.339Z,7.32
2022-09-28T05:16:13.480Z,6.40
2022-09-28T05:18:40.808Z,7.55
2022-09-28T05:21:14.953Z,33.92
2022-09-28T05:23:46.496Z,7.63
2022-09-28T05:26:14.258Z,7.97
2022-09-28T05:28:41.586Z,5.18
2022-09-28T05:31:08.860Z,9.85
2022-09-28T05:33:36.481Z,8.57
2022-09-28T05:36:03.894Z,6.72
2022-09-28T05:38:31.643Z,25.98
2022-09-28T05:41:02.089Z,9.48
2022-09-28T05:43:31.825Z,12.68
2022-09-28T05:46:00.270Z,14.73
2022-09-28T05:48:28.513Z,5.22
2022-09-28T05:50:55.929Z,9.68
2022-09-28T05:53:23.220Z,12.40
2022-09-28T05:55:50.505Z,14.10
2022-09-28T05:58:18.271Z,6.80
2022-09-28T06:00:45.608Z,11.18
2022-09-28T06:03:13.967Z,8.35
2022-09-28T06:05:41.562Z,6.97
2022-09-28T06:08:10.736Z,6.53
2022-09-28T06:10:38.330Z,5.97
2022-09-28T06:13:06.612Z,14.77
2022-09-28T06:15:34.695Z,9.77
2022-09-28T06:18:03.188Z,13.65
2022-09-28T06:20:32.056Z,14.02
2022-09-28T06:22:59.388Z,8.57
2022-09-28T06:25:27.799Z,7.53
2022-09-28T06:27:59.030Z,10.45
2022-09-28T06:30:27.393Z,12.80
2022-09-28T06:32:58.663Z,17.73
2022-09-28T06:35:26.623Z,8.05
2022-09-28T06:37:54.353Z,6.40
2022-09-28T06:40:22.086Z,8.13
2022-09-28T06:42:59.961Z,8.73
2022-09-28T06:45:28.019Z,11.20
2022-09-28T06:47:56.852Z,7.68
2022-09-28T06:50:24.901Z,7.80
2022-09-28T06:52:53.305Z,10.68
2022-09-28T06:55:21.371Z,14.88
2022-09-28T06:57:49.310Z,6.03
2022-09-28T07:00:16.664Z,6.85
2022-09-28T07:02:43.979Z,4.35
2022-09-28T07:05:13.948Z,7.28
2022-09-28T07:10:12.986Z,6.90
2022-09-28T07:12:40.707Z,5.32
2022-09-28T07:15:08.410Z,4.85
2022-09-28T07:17:48.570Z,4.47
2022-09-28T07:20:22.096Z,4.97
2022-09-28T07:22:53.730Z,5.82
2022-09-28T07:25:21.203Z,4.63
2022-09-28T07:27:48.486Z,3.72
2022-09-28T07:30:15.922Z,4.40
2022-09-28T07:32:43.299Z,6.43
2022-09-28T07:35:10.206Z,5.70
2022-09-28T07:37:37.817Z,4.32
2022-09-28T07:40:24.937Z,4.32
2022-09-28T07:42:51.947Z,5.75
2022-09-28T07:45:20.834Z,5.20
2022-09-28T07:47:47.792Z,3.30
2022-09-28T07:50:15.168Z,3.08
2022-09-28T07:52:43.232Z,3.05
2022-09-28T07:55:10.180Z,2.60
2022-09-28T07:57:37.229Z,3.33
2022-09-28T08:00:07.156Z,4.97
2022-09-28T08:05:02.863Z,2.78
2022-09-28T08:07:29.831Z,3.08
2022-09-28T08:09:56.746Z,3.20
2022-09-28T08:12:23.702Z,2.10
2022-09-28T08:14:52.331Z,2.28
2022-09-28T08:17:19.381Z,4.47
2022-09-28T08:20:04.831Z,3.20
2022-09-28T08:22:32.380Z,2.95
2022-09-28T08:24:59.681Z,3.92
2022-09-28T08:27:27.064Z,2.30
2022-09-28T08:29:54.413Z,2.88
2022-09-28T08:32:21.686Z,3.03
2022-09-28T08:34:48.956Z,2.80
2022-09-28T08:37:16.297Z,3.00
2022-09-28T08:39:43.618Z,2.65
2022-09-28T08:42:32.087Z,3.08
2022-09-28T08:45:01.536Z,1.95
2022-09-28T08:47:53.618Z,2.22
2022-09-28T08:50:27.085Z,1.88
2022-09-28T08:52:56.616Z,1.73
2022-09-28T08:55:23.985Z,3.00
2022-09-28T08:58:20.619Z,5.47
2022-09-28T09:00:51.994Z,4.60
2022-09-28T09:03:21.740Z,2.22
2022-09-28T09:06:07.953Z,1.90
2022-09-28T09:08:58.875Z,1.95
2022-09-28T09:11:41.506Z,2.45
2022-09-28T09:14:21.077Z,2.08
2022-09-28T09:17:14.835Z,1.50
2022-09-28T09:19:48.634Z,6.38
2022-09-28T09:22:38.352Z,1.60
2022-09-28T09:25:24.646Z,3.50
2022-09-28T09:27:54.917Z,2.95
2022-09-28T09:30:22.609Z,2.00
2022-09-28T09:32:56.057Z,4.93
2022-09-28T09:35:38.702Z,3.05
2022-09-28T09:38:28.016Z,2.45
2022-09-28T09:43:45.955Z,4.75
2022-09-28T09:46:13.294Z,2.55
2022-09-28T09:48:46.471Z,1.52
2022-09-28T09:51:36.964Z,3.00
2022-09-28T09:54:07.353Z,2.92
2022-09-28T09:56:37.084Z,3.60
2022-09-28T09:59:08.683Z,3.33
2022-09-28T10:01:37.932Z,3.05
2022-09-28T10:04:06.923Z,8.52
2022-09-28T10:06:35.637Z,3.43
2022-09-28T10:09:05.566Z,2.90
2022-09-28T10:11:36.237Z,3.25
2022-09-28T10:14:08.263Z,4.10
2022-09-28T10:16:36.014Z,5.35
2022-09-28T10:19:03.385Z,6.15
2022-09-28T10:21:31.265Z,1.95
2022-09-28T10:23:59.505Z,2.92
2022-09-28T10:26:30.738Z,1.58
2022-09-28T10:29:13.245Z,3.42
2022-09-28T10:31:44.346Z,4.47
2022-09-28T10:34:17.206Z,4.03
2022-09-28T10:36:49.534Z,1.67
2022-09-28T10:39:30.941Z,3.30
2022-09-28T10:42:00.072Z,2.55
2022-09-28T10:44:28.460Z,4.18
2022-09-28T10:47:10.097Z,1.63
2022-09-28T10:49:46.493Z,2.40
2022-09-28T10:52:33.263Z,1.95
2022-09-28T10:55:00.575Z,2.05
2022-09-28T10:57:37.876Z,1.60
2022-09-28T11:00:07.449Z,3.15
2022-09-28T11:02:38.941Z,1.90
2022-09-28T11:05:07.329Z,2.40
2022-09-28T11:07:35.593Z,1.83
2022-09-28T11:10:04.220Z,7.18
2022-09-28T11:12:38.042Z,2.22
2022-09-28T11:15:07.094Z,2.97
2022-09-28T11:17:42.133Z,4.27
2022-09-28T11:20:26.745Z,4.18
2022-09-28T11:23:15.769Z,2.35
2022-09-28T11:25:43.194Z,3.60
2022-09-28T11:28:18.519Z,5.18
2022-09-28T11:30:48.912Z,3.10
2022-09-28T11:33:20.264Z,2.15
2022-09-28T11:36:05.638Z,3.60
2022-09-28T11:38:47.557Z,3.90
2022-09-28T11:41:47.106Z,3.65
2022-09-28T11:44:32.620Z,2.20
2022-09-28T11:47:09.815Z,5.40
2022-09-28T11:49:50.323Z,2.20
2022-09-28T11:52:22.642Z,2.35
2022-09-28T11:54:55.902Z,4.57
2022-09-28T11:57:24.993Z,3.53
2022-09-28T11:59:58.765Z,2.60
2022-09-28T12:02:30.100Z,2.30
2022-09-28T12:04:59.590Z,5.50
2022-09-28T12:07:31.654Z,3.28
2022-09-28T12:10:17.420Z,4.80
2022-09-28T12:12:48.321Z,4.38
2022-09-28T12:15:21.723Z,4.43
2022-09-28T12:17:52.238Z,2.80
2022-09-28T12:20:33.953Z,3.17
2022-09-28T12:23:06.128Z,4.32
2022-09-28T12:25:55.490Z,3.15
2022-09-28T12:28:28.624Z,3.88
2022-09-28T12:30:58.061Z,3.17
2022-09-28T12:33:25.424Z,3.10
2022-09-28T12:36:08.241Z,4.68
2022-09-28T12:38:35.518Z,2.83
2022-09-28T12:41:11.712Z,6.50
2022-09-28T12:43:45.125Z,4.78
2022-09-28T12:46:18.910Z,4.85
2022-09-28T12:50:01.889Z,3.90
2022-09-28T12:52:04.576Z,3.13
2022-09-28T12:54:53.319Z,2.97
2022-09-28T12:57:29.999Z,9.55
2022-09-28T13:00:01.211Z,5.38
2022-09-28T13:02:31.421Z,3.10
2022-09-28T13:05:17.375Z,4.85
2022-09-28T13:07:54.214Z,3.47
2022-09-28T13:10:32.686Z,3.40
2022-09-28T13:13:06.013Z,4.07
2022-09-28T13:15:36.805Z,6.07
2022-09-28T13:18:13.109Z,5.85
2022-09-28T13:20:40.440Z,3.13
2022-09-28T13:23:07.693Z,5.07
2022-09-28T13:25:36.278Z,4.00
2022-09-28T13:28:06.856Z,3.00
2022-09-28T13:30:35.476Z,5.65
2022-09-28T13:33:04.762Z,3.25
2022-09-28T13:35:33.477Z,6.30
2022-09-28T13:38:19.116Z,8.63
2022-09-28T13:41:04.886Z,4.15
2022-09-28T13:43:50.929Z,5.80
2022-09-28T13:46:56.508Z,6.95
2022-09-28T13:49:45.625Z,9.57
2022-09-28T13:52:13.049Z,6.00
2022-09-28T13:54:52.210Z,6.53
2022-09-28T13:57:19.933Z,7.38
2022-09-28T13:59:53.499Z,9.45
2022-09-28T14:02:20.827Z,7.95
2022-09-28T14:05:01.634Z,12.35
2022-09-28T14:07:34.984Z,9.13
2022-09-28T14:10:21.034Z,10.30
2022-09-28T14:12:55.061Z,12.13
2022-09-28T14:15:37.766Z,9.07
2022-09-28T14:18:10.983Z,12.85
2022-09-28T14:20:38.456Z,11.00
2022-09-28T14:23:05.703Z,10.65
2022-09-28T14:25:34.181Z,9.90
2022-09-28T14:28:20.008Z,8.68
2022-09-28T14:30:48.746Z,9.80
2022-09-28T14:33:17.740Z,9.75
2022-09-28T14:35:48.385Z,7.63
2022-09-28T14:38:39.653Z,9.05
2022-09-28T14:41:25.450Z,10.68
2022-09-28T14:44:08.329Z,11.90
2022-09-28T14:46:37.011Z,10.40
2022-09-28T14:49:04.492Z,9.75
2022-09-28T14:51:35.465Z,13.88
2022-09-28T14:54:10.619Z,10.48
2022-09-28T14:56:46.011Z,9.43
2022-09-28T14:59:16.898Z,13.35
2022-09-28T15:01:48.114Z,13.50
2022-09-28T15:04:15.850Z,11.05
2022-09-28T15:06:52.673Z,8.77
2022-09-28T15:09:46.431Z,9.68
2022-09-28T15:12:21.666Z,11.98
2022-09-28T15:15:02.644Z,8.52
2022-09-28T15:17:38.551Z,10.32
2022-09-28T15:20:08.913Z,8.18
2022-09-28T15:22:37.075Z,10.18
2022-09-28T15:25:06.162Z,8.23
2022-09-28T15:27:37.214Z,8.97
2022-09-28T15:30:07.631Z,9.93
2022-09-28T15:32:34.931Z,9.35
2022-09-28T15:35:20.707Z,9.88
2022-09-28T15:37:53.538Z,8.77
2022-09-28T15:40:41.977Z,9.60
2022-09-28T15:43:29.469Z,9.57
2022-09-28T15:46:06.033Z,16.55
2022-09-28T15:48:41.768Z,9.10
2022-09-28T15:51:11.815Z,8.23
2022-09-28T15:53:43.614Z,9.88
2022-09-28T15:56:11.873Z,10.13
2022-09-28T15:58:39.762Z,10.68
2022-09-28T16:01:21.173Z,11.50
2022-09-28T16:03:48.712Z,8.75
2022-09-28T16:06:16.477Z,9.52
2022-09-28T16:08:44.761Z,10.93
2022-09-28T16:11:26.601Z,8.57
2022-09-28T16:14:07.549Z,9.25
2022-09-28T16:16:46.519Z,9.95
2022-09-28T16:19:35.203Z,10.18
2022-09-28T16:22:08.567Z,7.68
2022-09-28T16:24:39.567Z,8.50
2022-09-28T16:27:08.909Z,7.50
2022-09-28T16:29:40.190Z,8.52
2022-09-28T16:32:26.130Z,7.90
2022-09-28T16:35:08.375Z,9.20
2022-09-28T16:37:35.745Z,7.80
2022-09-28T16:40:02.997Z,10.32
2022-09-28T16:42:30.540Z,8.50
2022-09-28T16:44:58.002Z,7.55
2022-09-28T16:47:25.304Z,8.88
2022-09-28T16:49:54.092Z,9.27
2022-09-28T16:52:42.581Z,8.02
2022-09-28T16:55:36.156Z,8.23
2022-09-28T16:58:05.721Z,9.90
2022-09-28T17:03:02.353Z,7.05
2022-09-28T17:05:29.675Z,6.97
2022-09-28T17:08:05.691Z,7.97
2022-09-28T17:11:09.676Z,7.95
2022-09-28T17:13:35.245Z,8.63
2022-09-28T17:16:07.602Z,8.32
2022-09-28T17:18:39.202Z,7.53
2022-09-28T17:21:19.800Z,6.75
2022-09-28T17:23:48.166Z,8.10
2022-09-28T17:26:20.611Z,7.70
2022-09-28T17:28:48.031Z,9.80
2022-09-28T17:31:16.833Z,7.57
2022-09-28T17:33:44.215Z,12.50
2022-09-28T17:36:14.947Z,8.88
2022-09-28T17:38:43.426Z,8.20
2022-09-28T17:41:18.053Z,8.85
2022-09-28T17:43:47.502Z,8.80
2022-09-28T17:46:22.658Z,8.82
2022-09-28T17:48:50.006Z,7.38
2022-09-28T17:51:18.547Z,7.13
2022-09-28T17:53:46.257Z,8.27
2022-09-28T17:56:13.932Z,8.98
2022-09-28T17:58:41.239Z,6.78
2022-09-28T18:01:09.984Z,7.78
2022-09-28T18:03:38.573Z,8.77
2022-09-28T18:06:09.111Z,7.53
2022-09-28T18:08:38.726Z,6.97
2022-09-28T18:11:06.406Z,9.77
2022-09-28T18:13:36.326Z,7.25
2022-09-28T18:16:04.393Z,9.63
2022-09-28T18:18:34.149Z,7.88
2022-09-28T18:21:02.019Z,8.30
2022-09-28T18:23:29.373Z,9.43
2022-09-28T18:25:57.062Z,9.85
2022-09-28T18:28:25.602Z,6.90
2022-09-28T18:30:53.670Z,8.85
2022-09-28T18:33:21.842Z,9.60
2022-09-28T18:35:54.935Z,9.48
2022-09-28T18:38:22.452Z,6.88
2022-09-28T18:40:52.124Z,6.97
2022-09-28T18:43:19.411Z,6.82
2022-09-28T18:45:47.227Z,6.95
2022-09-28T18:48:15.181Z,7.68
2022-09-28T18:50:45.514Z,6.27
2022-09-28T18:53:12.899Z,7.63
2022-09-28T18:55:40.922Z,6.50
2022-09-28T18:58:11.015Z,7.97
2022-09-28T19:00:42.718Z,8.48
2022-09-28T19:03:11.675Z,9.18
2022-09-28T19:05:43.617Z,8.10
2022-09-28T19:08:11.216Z,6.90
2022-09-28T19:10:38.649Z,6.80
2022-09-28T19:13:07.557Z,7.07
2022-09-28T19:15:35.024Z,8.75
2022-09-28T19:18:02.553Z,6.63
2022-09-28T19:20:29.824Z,14.57
2022-09-28T19:22:57.238Z,7.00
2022-09-28T19:25:24.543Z,9.93
2022-09-28T19:27:51.990Z,8.77
2022-09-28T19:30:19.344Z,8.02
2022-09-28T19:32:46.634Z,8.73
2022-09-28T19:35:13.937Z,9.20
2022-09-28T19:37:42.259Z,6.90
2022-09-28T19:40:09.804Z,8.18
2022-09-28T19:42:37.122Z,8.20
2022-09-28T19:45:05.310Z,9.57
2022-09-28T19:47:32.632Z,7.47
2022-09-28T19:49:59.940Z,10.57
2022-09-28T19:52:27.242Z,8.40
2022-09-28T19:54:56.940Z,9.18
2022-09-28T19:59:56.675Z,9.20
2022-09-28T20:02:26.711Z,8.65
2022-09-28T20:04:54.017Z,11.23
2022-09-28T20:07:22.672Z,9.27
2022-09-28T20:09:49.917Z,9.65
2022-09-28T20:12:17.731Z,8.85
2022-09-28T20:14:44.995Z,7.43
2022-09-28T20:17:12.276Z,10.73
2022-09-28T20:19:39.566Z,10.05
2022-09-28T20:22:06.930Z,9.23
2022-09-28T20:24:34.239Z,8.88
2022-09-28T20:27:01.804Z,9.52
2022-09-28T20:29:31.640Z,8.80
2022-09-28T20:34:26.526Z,9.30
2022-09-28T20:36:53.891Z,9.50
2022-09-28T20:39:21.311Z,10.40
2022-09-28T20:41:49.188Z,9.25
2022-09-28T20:44:16.683Z,10.23
2022-09-28T20:46:44.284Z,8.73
2022-09-28T20:49:11.748Z,9.82
2022-09-28T20:51:39.045Z,12.00
2022-09-28T20:54:06.418Z,9.25
2022-09-28T20:56:43.301Z,10.10
2022-09-28T20:59:12.191Z,10.43
2022-09-28T21:01:39.632Z,10.73
2022-09-28T21:04:08.062Z,11.10
2022-09-28T21:06:36.482Z,10.23
2022-09-28T21:09:05.337Z,11.38
2022-09-28T21:11:35.783Z,12.60
2022-09-28T21:14:04.174Z,10.10
2022-09-28T21:16:32.485Z,12.27
2022-09-28T21:18:59.849Z,10.48
2022-09-28T21:21:27.688Z,10.15
2022-09-28T21:23:55.882Z,10.65
2022-09-28T21:26:25.782Z,10.70
2022-09-28T21:31:24.918Z,10.23
2022-09-28T21:33:55.959Z,9.48
2022-09-28T21:36:23.313Z,12.32
2022-09-28T21:38:50.645Z,10.38
2022-09-28T21:41:18.040Z,10.43
2022-09-28T21:43:46.402Z,14.18
2022-09-28T21:46:13.754Z,9.90
2022-09-28T21:48:41.086Z,12.18
2022-09-28T21:51:09.300Z,12.30
2022-09-28T21:53:37.421Z,9.45
2022-09-28T21:56:05.562Z,11.02
2022-09-28T21:58:34.091Z,9.75
2022-09-28T22:01:02.436Z,10.88
2022-09-28T22:03:30.277Z,10.38
2022-09-28T22:05:57.638Z,10.93
2022-09-28T22:08:25.049Z,10.77
2022-09-28T22:11:01.331Z,12.45
2022-09-28T22:13:32.571Z,11.90
2022-09-28T22:16:00.095Z,13.70
2022-09-28T22:18:28.330Z,13.30
2022-09-28T22:21:21.853Z,11.95
2022-09-28T22:23:49.962Z,11.18
2022-09-28T22:26:19.162Z,10.00
2022-09-28T22:28:47.677Z,10.02
2022-09-28T22:31:15.826Z,8.50
2022-09-28T22:33:43.170Z,9.73
2022-09-28T22:36:10.480Z,16.05
2022-09-28T22:38:38.030Z,12.98
2022-09-28T22:41:05.347Z,9.95
2022-09-28T22:43:32.815Z,12.80
2022-09-28T22:46:04.717Z,14.52
2022-09-28T22:48:32.339Z,10.02
2022-09-28T22:51:00.135Z,10.40
2022-09-28T22:53:28.516Z,11.88
2022-09-28T22:55:56.370Z,12.52
2022-09-28T22:58:23.835Z,12.00
2022-09-28T23:00:51.148Z,10.68
2022-09-28T23:03:18.577Z,10.13
2022-09-28T23:05:55.801Z,14.13
2022-09-28T23:08:23.913Z,13.75
2022-09-28T23:10:51.756Z,9.60
2022-09-28T23:13:19.092Z,10.73
2022-09-28T23:15:58.948Z,11.02
2022-09-28T23:18:29.556Z,26.45
2022-09-28T23:20:57.383Z,9.50
2022-09-28T23:23:25.034Z,11.00
2022-09-28T23:25:52.957Z,11.18
2022-09-28T23:28:20.864Z,10.45
2022-09-28T23:30:48.512Z,10.23
2022-09-28T23:33:16.799Z,9.55
2022-09-28T23:35:44.232Z,10.25
2022-09-28T23:38:14.851Z,12.25
2022-09-28T23:40:42.285Z,10.50
2022-09-28T23:43:09.577Z,9.57
2022-09-28T23:45:36.855Z,11.80
2022-09-28T23:48:04.149Z,10.75
2022-09-28T23:50:31.451Z,11.02
2022-09-28T23:52:58.773Z,9.88
2022-09-28T23:55:26.077Z,10.68
2022-09-28T23:57:55.671Z,11.77
